Aeroporto :
LOGIN :

Iscrizione | Disclaimer

   EN    FR    IT 

 










Sommario :    VFR   VFR Marginale   IFR   IFR Intensivo   IFR Molto Intensivo
Visibilità : 
Base nubi : 
>= 8 km
>= 3000ft
5 / 8 km
1000 / 3000 ft
1500m / 5 km
500 / 1000 ft
800 / 1500m
200 / 500 ft
< 800m
< 200 ft
Simboli :   Temporali  Nebbia  Neve Forte  Precipitazioni Forti  Vento > 20 kt
SIGMETs :   Varie  Temporali  Ghiacco  Turbolenza  Onda orograficha  Ceneri Vulcaniche







- Altitudine del aeroporto : 194 ft


EBCV - Chièvres

ULTIMO METAR :
  • 240725Z AUTO 24004KT 9999 NCD 16/07 Q1016 BLU

METARs OBSOLETI :
  • 240655Z AUTO 23004KT 9999 NCD 16/06 Q1016 BLU
  • 240625Z AUTO 23004KT 9999 FEW083/// 15/08 Q1016 BLU
  • 240555Z AUTO 19003KT 9999 FEW090/// 14/10 Q1016 BLU
  • 240525Z AUTO 20003KT 9999 SCT093/// 13/10 Q1016 BLU
  • 240455Z AUTO 19004KT 9999 NCD 11/09 Q1016 BLU

TAF TAF EBCV
Valido dal 24 a 07 ore il 24 a 16 ore UTC


240541Z 2407/2416 25005KT 9999 FEW040 SCT230
PROB30
TEMPO 2408/2412 27005KT 8000 -SHRA SCT030 BKN120
BECMG 2414/2416 30005KT 9999 SCT030 BY EBWM
Nessun NOTAM noto per questo aeroporto.



MetMap, La meteo Aeronautica in un colpo d'occhio ! - Copyright ORBIFLY Dicembre 2007 - Disclaimer

ORBIFLY MET'MAP TEAM :

Programmazione e sviluppo : Alexandra Zaïnal
Concezione e sviluppo : Baudouin d'Aumeries
Co-Programmazione e sviluppo : Marc-Olivier Méhu
Supporto tecnico e logistico : Manuel Goepfert
Aiuto per la traduzione : Arnaldo La Scala

Contatto : metmap@orbifly.com




FONTI E CREDITI :

   NOAA